sensor_id;sensor_type;location;lat;lon;timestamp;P1;durP1;ratioP1;P2;durP2;ratioP2
15067;SDS011;7633;60.024;18.770;2023-04-24T00:01:41;0.30;;;0.30;;
15067;SDS011;7633;60.024;18.770;2023-04-24T00:04:12;0.70;;;0.30;;
15067;SDS011;7633;60.024;18.770;2023-04-24T00:06:48;0.20;;;0.20;;
15067;SDS011;7633;60.024;18.770;2023-04-24T00:09:25;0.30;;;0.10;;
15067;SDS011;7633;60.024;18.770;2023-04-24T00:11:54;0.10;;;0.10;;
15067;SDS011;7633;60.024;18.770;2023-04-24T00:14:30;0.23;;;0.13;;
15067;SDS011;7633;60.024;18.770;2023-04-24T00:17:07;0.20;;;0.20;;
15067;SDS011;7633;60.024;18.770;2023-04-24T00:19:39;1.70;;;0.30;;
15067;SDS011;7633;60.024;18.770;2023-04-24T00:22:09;0.30;;;0.30;;
15067;SDS011;7633;60.024;18.770;2023-04-24T00:24:41;0.20;;;0.20;;
15067;SDS011;7633;60.024;18.770;2023-04-24T00:27:10;0.20;;;0.20;;
15067;SDS011;7633;60.024;18.770;2023-04-24T00:29:44;0.97;;;0.43;;
15067;SDS011;7633;60.024;18.770;2023-04-24T00:32:15;0.10;;;0.10;;
15067;SDS011;7633;60.024;18.770;2023-04-24T00:34:43;0.40;;;0.20;;
15067;SDS011;7633;60.024;18.770;2023-04-24T00:37:10;1.13;;;0.20;;
15067;SDS011;7633;60.024;18.770;2023-04-24T00:39:38;0.23;;;0.23;;
15067;SDS011;7633;60.024;18.770;2023-04-24T00:42:06;0.23;;;0.13;;
15067;SDS011;7633;60.024;18.770;2023-04-24T00:44:36;0.20;;;0.20;;
15067;SDS011;7633;60.024;18.770;2023-04-24T00:47:10;0.47;;;0.40;;
15067;SDS011;7633;60.024;18.770;2023-04-24T00:49:39;0.20;;;0.20;;
15067;SDS011;7633;60.024;18.770;2023-04-24T00:52:08;0.30;;;0.10;;
15067;SDS011;7633;60.024;18.770;2023-04-24T00:54:37;0.80;;;0.20;;
15067;SDS011;7633;60.024;18.770;2023-04-24T00:57:11;0.30;;;0.30;;
15067;SDS011;7633;60.024;18.770;2023-04-24T00:59:38;0.30;;;0.30;;
15067;SDS011;7633;60.024;18.770;2023-04-24T01:02:06;1.77;;;0.50;;
15067;SDS011;7633;60.024;18.770;2023-04-24T01:04:33;0.70;;;0.30;;
15067;SDS011;7633;60.024;18.770;2023-04-24T01:07:01;0.33;;;0.33;;
15067;SDS011;7633;60.024;18.770;2023-04-24T01:09:29;0.87;;;0.30;;
15067;SDS011;7633;60.024;18.770;2023-04-24T01:12:00;0.60;;;0.47;;
15067;SDS011;7633;60.024;18.770;2023-04-24T01:14:30;0.40;;;0.30;;
15067;SDS011;7633;60.024;18.770;2023-04-24T01:17:02;0.77;;;0.30;;
15067;SDS011;7633;60.024;18.770;2023-04-24T01:19:35;1.43;;;0.40;;
15067;SDS011;7633;60.024;18.770;2023-04-24T01:22:15;0.30;;;0.30;;
15067;SDS011;7633;60.024;18.770;2023-04-24T01:24:46;0.40;;;0.40;;
15067;SDS011;7633;60.024;18.770;2023-04-24T01:27:12;0.60;;;0.50;;
15067;SDS011;7633;60.024;18.770;2023-04-24T01:29:41;0.47;;;0.40;;
15067;SDS011;7633;60.024;18.770;2023-04-24T01:32:13;1.00;;;0.90;;
15067;SDS011;7633;60.024;18.770;2023-04-24T01:34:46;1.07;;;0.40;;
15067;SDS011;7633;60.024;18.770;2023-04-24T01:37:15;0.90;;;0.40;;
15067;SDS011;7633;60.024;18.770;2023-04-24T01:39:48;0.60;;;0.60;;
15067;SDS011;7633;60.024;18.770;2023-04-24T01:42:22;1.13;;;0.53;;
15067;SDS011;7633;60.024;18.770;2023-04-24T01:44:54;0.37;;;0.33;;
15067;SDS011;7633;60.024;18.770;2023-04-24T01:47:20;0.43;;;0.43;;
15067;SDS011;7633;60.024;18.770;2023-04-24T01:49:48;0.60;;;0.40;;
15067;SDS011;7633;60.024;18.770;2023-04-24T01:52:20;1.13;;;0.50;;
15067;SDS011;7633;60.024;18.770;2023-04-24T01:54:47;1.43;;;0.60;;
15067;SDS011;7633;60.024;18.770;2023-04-24T01:57:20;0.83;;;0.70;;
15067;SDS011;7633;60.024;18.770;2023-04-24T01:59:48;0.80;;;0.60;;
15067;SDS011;7633;60.024;18.770;2023-04-24T02:02:23;0.63;;;0.43;;
15067;SDS011;7633;60.024;18.770;2023-04-24T02:05:05;1.67;;;0.60;;
15067;SDS011;7633;60.024;18.770;2023-04-24T02:07:36;3.50;;;0.53;;
15067;SDS011;7633;60.024;18.770;2023-04-24T02:10:05;0.70;;;0.60;;
15067;SDS011;7633;60.024;18.770;2023-04-24T02:12:38;1.70;;;0.73;;
15067;SDS011;7633;60.024;18.770;2023-04-24T02:15:13;1.27;;;0.60;;
15067;SDS011;7633;60.024;18.770;2023-04-24T02:17:48;0.70;;;0.70;;
15067;SDS011;7633;60.024;18.770;2023-04-24T02:20:19;0.60;;;0.60;;
15067;SDS011;7633;60.024;18.770;2023-04-24T02:22:45;1.20;;;0.90;;
15067;SDS011;7633;60.024;18.770;2023-04-24T02:25:14;0.50;;;0.47;;
15067;SDS011;7633;60.024;18.770;2023-04-24T02:27:45;1.43;;;0.60;;
15067;SDS011;7633;60.024;18.770;2023-04-24T02:30:13;1.10;;;0.60;;
15067;SDS011;7633;60.024;18.770;2023-04-24T02:32:46;1.50;;;0.43;;
15067;SDS011;7633;60.024;18.770;2023-04-24T02:35:14;1.17;;;0.70;;
15067;SDS011;7633;60.024;18.770;2023-04-24T02:37:44;2.17;;;0.70;;
15067;SDS011;7633;60.024;18.770;2023-04-24T02:40:11;1.83;;;0.77;;
15067;SDS011;7633;60.024;18.770;2023-04-24T02:42:36;1.40;;;0.80;;
15067;SDS011;7633;60.024;18.770;2023-04-24T02:45:01;1.13;;;0.70;;
15067;SDS011;7633;60.024;18.770;2023-04-24T02:47:27;0.77;;;0.70;;
15067;SDS011;7633;60.024;18.770;2023-04-24T02:49:52;2.23;;;0.97;;
15067;SDS011;7633;60.024;18.770;2023-04-24T02:52:18;1.37;;;0.90;;
15067;SDS011;7633;60.024;18.770;2023-04-24T02:54:43;1.53;;;0.97;;
15067;SDS011;7633;60.024;18.770;2023-04-24T02:57:08;1.80;;;1.00;;
15067;SDS011;7633;60.024;18.770;2023-04-24T02:59:34;1.00;;;0.90;;
15067;SDS011;7633;60.024;18.770;2023-04-24T03:01:59;1.00;;;0.83;;
15067;SDS011;7633;60.024;18.770;2023-04-24T03:04:25;2.43;;;1.10;;
15067;SDS011;7633;60.024;18.770;2023-04-24T03:06:52;1.67;;;1.30;;
15067;SDS011;7633;60.024;18.770;2023-04-24T03:09:19;2.03;;;1.00;;
15067;SDS011;7633;60.024;18.770;2023-04-24T03:11:45;2.10;;;1.10;;
15067;SDS011;7633;60.024;18.770;2023-04-24T03:14:10;1.70;;;1.13;;
15067;SDS011;7633;60.024;18.770;2023-04-24T03:16:35;1.30;;;1.20;;
15067;SDS011;7633;60.024;18.770;2023-04-24T03:19:01;1.57;;;1.10;;
15067;SDS011;7633;60.024;18.770;2023-04-24T03:21:26;1.37;;;1.20;;
15067;SDS011;7633;60.024;18.770;2023-04-24T03:23:52;2.33;;;1.37;;
15067;SDS011;7633;60.024;18.770;2023-04-24T03:26:17;1.30;;;1.20;;
15067;SDS011;7633;60.024;18.770;2023-04-24T03:28:43;1.37;;;1.10;;
15067;SDS011;7633;60.024;18.770;2023-04-24T03:31:08;2.13;;;1.20;;
15067;SDS011;7633;60.024;18.770;2023-04-24T03:33:34;1.37;;;1.20;;
15067;SDS011;7633;60.024;18.770;2023-04-24T03:36:00;1.57;;;1.30;;
15067;SDS011;7633;60.024;18.770;2023-04-24T03:38:25;1.97;;;1.47;;
15067;SDS011;7633;60.024;18.770;2023-04-24T03:40:51;1.47;;;1.00;;
15067;SDS011;7633;60.024;18.770;2023-04-24T03:43:16;1.67;;;1.30;;
15067;SDS011;7633;60.024;18.770;2023-04-24T03:45:41;1.87;;;1.20;;
15067;SDS011;7633;60.024;18.770;2023-04-24T03:48:07;2.57;;;1.23;;
15067;SDS011;7633;60.024;18.770;2023-04-24T03:50:33;2.00;;;1.23;;
15067;SDS011;7633;60.024;18.770;2023-04-24T03:52:58;1.13;;;1.03;;
15067;SDS011;7633;60.024;18.770;2023-04-24T03:55:24;1.47;;;1.10;;
15067;SDS011;7633;60.024;18.770;2023-04-24T03:57:49;1.80;;;1.20;;
15067;SDS011;7633;60.024;18.770;2023-04-24T04:00:15;0.90;;;0.90;;
15067;SDS011;7633;60.024;18.770;2023-04-24T04:02:41;2.50;;;1.10;;
15067;SDS011;7633;60.024;18.770;2023-04-24T04:05:06;1.40;;;1.30;;
15067;SDS011;7633;60.024;18.770;2023-04-24T04:07:33;3.47;;;1.10;;
15067;SDS011;7633;60.024;18.770;2023-04-24T04:09:58;1.37;;;1.27;;
15067;SDS011;7633;60.024;18.770;2023-04-24T04:12:24;1.47;;;1.37;;
15067;SDS011;7633;60.024;18.770;2023-04-24T04:14:49;1.70;;;1.10;;
15067;SDS011;7633;60.024;18.770;2023-04-24T04:17:14;1.50;;;1.40;;
15067;SDS011;7633;60.024;18.770;2023-04-24T04:19:40;1.57;;;1.10;;
15067;SDS011;7633;60.024;18.770;2023-04-24T04:22:06;2.80;;;1.37;;
15067;SDS011;7633;60.024;18.770;2023-04-24T04:24:33;2.03;;;1.17;;
15067;SDS011;7633;60.024;18.770;2023-04-24T04:26:58;3.83;;;1.40;;
15067;SDS011;7633;60.024;18.770;2023-04-24T04:29:24;1.60;;;1.50;;
15067;SDS011;7633;60.024;18.770;2023-04-24T04:31:49;2.47;;;1.30;;
15067;SDS011;7633;60.024;18.770;2023-04-24T04:34:15;3.07;;;1.40;;
15067;SDS011;7633;60.024;18.770;2023-04-24T04:36:40;1.63;;;1.33;;
15067;SDS011;7633;60.024;18.770;2023-04-24T04:39:06;2.13;;;1.50;;
15067;SDS011;7633;60.024;18.770;2023-04-24T04:41:32;1.70;;;1.43;;
15067;SDS011;7633;60.024;18.770;2023-04-24T04:44:00;1.90;;;1.23;;
15067;SDS011;7633;60.024;18.770;2023-04-24T04:46:25;2.27;;;1.30;;
15067;SDS011;7633;60.024;18.770;2023-04-24T04:48:51;3.20;;;1.57;;
15067;SDS011;7633;60.024;18.770;2023-04-24T04:51:17;1.53;;;1.43;;
15067;SDS011;7633;60.024;18.770;2023-04-24T04:53:42;2.30;;;1.60;;
15067;SDS011;7633;60.024;18.770;2023-04-24T04:56:08;2.70;;;1.83;;
15067;SDS011;7633;60.024;18.770;2023-04-24T04:58:33;2.10;;;1.53;;
15067;SDS011;7633;60.024;18.770;2023-04-24T05:00:58;2.83;;;1.93;;
15067;SDS011;7633;60.024;18.770;2023-04-24T05:03:24;2.27;;;1.50;;
15067;SDS011;7633;60.024;18.770;2023-04-24T05:05:49;1.60;;;1.50;;
15067;SDS011;7633;60.024;18.770;2023-04-24T05:08:15;2.37;;;1.60;;
15067;SDS011;7633;60.024;18.770;2023-04-24T05:10:40;3.60;;;2.33;;
15067;SDS011;7633;60.024;18.770;2023-04-24T05:13:05;4.03;;;1.43;;
15067;SDS011;7633;60.024;18.770;2023-04-24T05:15:31;1.57;;;1.47;;
15067;SDS011;7633;60.024;18.770;2023-04-24T05:17:56;2.40;;;1.43;;
15067;SDS011;7633;60.024;18.770;2023-04-24T05:20:21;2.13;;;1.40;;
15067;SDS011;7633;60.024;18.770;2023-04-24T05:22:47;2.53;;;1.70;;
15067;SDS011;7633;60.024;18.770;2023-04-24T05:25:13;2.20;;;1.40;;
15067;SDS011;7633;60.024;18.770;2023-04-24T05:27:38;2.67;;;1.30;;
15067;SDS011;7633;60.024;18.770;2023-04-24T05:30:04;3.03;;;1.40;;
15067;SDS011;7633;60.024;18.770;2023-04-24T05:32:30;3.63;;;1.63;;
15067;SDS011;7633;60.024;18.770;2023-04-24T05:34:55;1.30;;;1.20;;
15067;SDS011;7633;60.024;18.770;2023-04-24T05:37:20;1.87;;;1.30;;
15067;SDS011;7633;60.024;18.770;2023-04-24T05:39:46;1.50;;;1.30;;
15067;SDS011;7633;60.024;18.770;2023-04-24T05:42:11;1.47;;;1.13;;
15067;SDS011;7633;60.024;18.770;2023-04-24T05:44:36;2.13;;;1.20;;
15067;SDS011;7633;60.024;18.770;2023-04-24T05:47:02;1.30;;;1.20;;
15067;SDS011;7633;60.024;18.770;2023-04-24T05:49:28;1.40;;;1.30;;
15067;SDS011;7633;60.024;18.770;2023-04-24T05:51:54;0.90;;;0.90;;
15067;SDS011;7633;60.024;18.770;2023-04-24T05:54:19;3.07;;;1.30;;
15067;SDS011;7633;60.024;18.770;2023-04-24T05:56:44;1.60;;;1.20;;
15067;SDS011;7633;60.024;18.770;2023-04-24T05:59:10;1.50;;;1.10;;
15067;SDS011;7633;60.024;18.770;2023-04-24T06:01:35;2.07;;;0.93;;
15067;SDS011;7633;60.024;18.770;2023-04-24T06:04:01;1.10;;;0.83;;
15067;SDS011;7633;60.024;18.770;2023-04-24T06:06:27;1.10;;;0.90;;
15067;SDS011;7633;60.024;18.770;2023-04-24T06:08:52;0.70;;;0.70;;
15067;SDS011;7633;60.024;18.770;2023-04-24T06:11:18;1.63;;;0.97;;
15067;SDS011;7633;60.024;18.770;2023-04-24T06:13:43;0.90;;;0.90;;
15067;SDS011;7633;60.024;18.770;2023-04-24T06:16:09;1.10;;;0.83;;
15067;SDS011;7633;60.024;18.770;2023-04-24T06:18:34;0.80;;;0.80;;
15067;SDS011;7633;60.024;18.770;2023-04-24T06:21:00;2.17;;;1.07;;
15067;SDS011;7633;60.024;18.770;2023-04-24T06:23:25;1.43;;;1.33;;
15067;SDS011;7633;60.024;18.770;2023-04-24T06:25:50;1.63;;;1.10;;
15067;SDS011;7633;60.024;18.770;2023-04-24T06:28:16;0.80;;;0.80;;
15067;SDS011;7633;60.024;18.770;2023-04-24T06:30:41;1.10;;;0.83;;
15067;SDS011;7633;60.024;18.770;2023-04-24T06:33:08;1.30;;;0.90;;
15067;SDS011;7633;60.024;18.770;2023-04-24T06:35:33;1.17;;;1.07;;
15067;SDS011;7633;60.024;18.770;2023-04-24T06:37:59;1.10;;;0.90;;
15067;SDS011;7633;60.024;18.770;2023-04-24T06:40:24;1.33;;;1.23;;
15067;SDS011;7633;60.024;18.770;2023-04-24T06:42:50;1.00;;;0.90;;
15067;SDS011;7633;60.024;18.770;2023-04-24T06:45:15;2.77;;;0.90;;
15067;SDS011;7633;60.024;18.770;2023-04-24T06:47:40;1.27;;;0.90;;
15067;SDS011;7633;60.024;18.770;2023-04-24T06:50:06;1.33;;;1.00;;
15067;SDS011;7633;60.024;18.770;2023-04-24T06:52:31;1.17;;;1.07;;
15067;SDS011;7633;60.024;18.770;2023-04-24T06:55:01;1.00;;;0.90;;
15067;SDS011;7633;60.024;18.770;2023-04-24T06:57:27;1.10;;;1.00;;
15067;SDS011;7633;60.024;18.770;2023-04-24T06:59:53;1.43;;;1.10;;
15067;SDS011;7633;60.024;18.770;2023-04-24T07:02:18;1.27;;;1.00;;
15067;SDS011;7633;60.024;18.770;2023-04-24T07:04:43;1.13;;;1.03;;
15067;SDS011;7633;60.024;18.770;2023-04-24T07:07:09;1.20;;;0.87;;
15067;SDS011;7633;60.024;18.770;2023-04-24T07:09:38;0.97;;;0.90;;
15067;SDS011;7633;60.024;18.770;2023-04-24T07:12:06;1.13;;;1.03;;
15067;SDS011;7633;60.024;18.770;2023-04-24T07:14:32;0.97;;;0.90;;
15067;SDS011;7633;60.024;18.770;2023-04-24T07:16:57;1.20;;;1.00;;
15067;SDS011;7633;60.024;18.770;2023-04-24T07:19:23;1.17;;;0.93;;
15067;SDS011;7633;60.024;18.770;2023-04-24T07:21:49;1.10;;;1.00;;
15067;SDS011;7633;60.024;18.770;2023-04-24T07:24:14;1.20;;;0.97;;
15067;SDS011;7633;60.024;18.770;2023-04-24T07:26:40;1.30;;;0.90;;
15067;SDS011;7633;60.024;18.770;2023-04-24T07:29:05;0.80;;;0.80;;
15067;SDS011;7633;60.024;18.770;2023-04-24T07:31:31;1.17;;;0.83;;
15067;SDS011;7633;60.024;18.770;2023-04-24T07:33:56;1.40;;;1.30;;
15067;SDS011;7633;60.024;18.770;2023-04-24T07:36:23;0.97;;;0.90;;
15067;SDS011;7633;60.024;18.770;2023-04-24T07:38:49;1.27;;;1.00;;
15067;SDS011;7633;60.024;18.770;2023-04-24T07:41:14;1.10;;;1.00;;
15067;SDS011;7633;60.024;18.770;2023-04-24T07:43:40;0.97;;;0.97;;
15067;SDS011;7633;60.024;18.770;2023-04-24T07:46:06;1.27;;;1.07;;
15067;SDS011;7633;60.024;18.770;2023-04-24T07:48:31;1.67;;;1.10;;
15067;SDS011;7633;60.024;18.770;2023-04-24T07:50:57;1.20;;;0.87;;
15067;SDS011;7633;60.024;18.770;2023-04-24T07:53:22;1.13;;;1.03;;
15067;SDS011;7633;60.024;18.770;2023-04-24T07:55:48;1.10;;;1.00;;
15067;SDS011;7633;60.024;18.770;2023-04-24T07:58:13;1.30;;;1.20;;
15067;SDS011;7633;60.024;18.770;2023-04-24T08:00:38;1.17;;;1.00;;
15067;SDS011;7633;60.024;18.770;2023-04-24T08:03:04;1.30;;;1.20;;
15067;SDS011;7633;60.024;18.770;2023-04-24T08:05:29;2.23;;;2.03;;
15067;SDS011;7633;60.024;18.770;2023-04-24T08:07:55;1.43;;;1.20;;
15067;SDS011;7633;60.024;18.770;2023-04-24T08:10:20;2.90;;;1.50;;
15067;SDS011;7633;60.024;18.770;2023-04-24T08:12:46;1.30;;;1.17;;
15067;SDS011;7633;60.024;18.770;2023-04-24T08:15:11;2.40;;;1.30;;
15067;SDS011;7633;60.024;18.770;2023-04-24T08:17:37;1.53;;;1.10;;
15067;SDS011;7633;60.024;18.770;2023-04-24T08:20:03;1.47;;;1.10;;
15067;SDS011;7633;60.024;18.770;2023-04-24T08:22:30;2.00;;;1.20;;
15067;SDS011;7633;60.024;18.770;2023-04-24T08:24:55;1.50;;;1.10;;
15067;SDS011;7633;60.024;18.770;2023-04-24T08:27:22;1.53;;;1.20;;
15067;SDS011;7633;60.024;18.770;2023-04-24T08:29:47;1.40;;;1.30;;
15067;SDS011;7633;60.024;18.770;2023-04-24T08:32:12;1.33;;;1.10;;
15067;SDS011;7633;60.024;18.770;2023-04-24T08:34:38;3.80;;;1.23;;
15067;SDS011;7633;60.024;18.770;2023-04-24T08:37:03;1.73;;;1.10;;
15067;SDS011;7633;60.024;18.770;2023-04-24T08:39:28;1.30;;;1.20;;
15067;SDS011;7633;60.024;18.770;2023-04-24T08:41:55;2.10;;;1.20;;
15067;SDS011;7633;60.024;18.770;2023-04-24T08:44:20;1.37;;;1.27;;
15067;SDS011;7633;60.024;18.770;2023-04-24T08:46:46;1.20;;;1.10;;
15067;SDS011;7633;60.024;18.770;2023-04-24T08:49:13;1.60;;;1.23;;
15067;SDS011;7633;60.024;18.770;2023-04-24T08:51:41;1.20;;;1.10;;
15067;SDS011;7633;60.024;18.770;2023-04-24T08:54:06;2.13;;;1.13;;
15067;SDS011;7633;60.024;18.770;2023-04-24T08:56:33;1.30;;;1.20;;
15067;SDS011;7633;60.024;18.770;2023-04-24T08:58:59;2.80;;;1.43;;
15067;SDS011;7633;60.024;18.770;2023-04-24T09:01:24;1.43;;;1.00;;
15067;SDS011;7633;60.024;18.770;2023-04-24T09:03:50;1.27;;;1.10;;
15067;SDS011;7633;60.024;18.770;2023-04-24T09:06:16;2.63;;;1.10;;
15067;SDS011;7633;60.024;18.770;2023-04-24T09:08:42;1.20;;;1.10;;
15067;SDS011;7633;60.024;18.770;2023-04-24T09:11:08;2.17;;;1.47;;
15067;SDS011;7633;60.024;18.770;2023-04-24T09:13:34;1.40;;;1.17;;
15067;SDS011;7633;60.024;18.770;2023-04-24T09:16:00;1.40;;;1.30;;
15067;SDS011;7633;60.024;18.770;2023-04-24T09:18:26;2.47;;;1.20;;
15067;SDS011;7633;60.024;18.770;2023-04-24T09:20:58;1.20;;;1.10;;
15067;SDS011;7633;60.024;18.770;2023-04-24T09:23:29;1.47;;;1.07;;
15067;SDS011;7633;60.024;18.770;2023-04-24T09:25:55;1.70;;;1.10;;
15067;SDS011;7633;60.024;18.770;2023-04-24T09:28:24;1.70;;;1.20;;
15067;SDS011;7633;60.024;18.770;2023-04-24T09:31:01;1.23;;;1.10;;
15067;SDS011;7633;60.024;18.770;2023-04-24T09:33:26;1.20;;;1.10;;
15067;SDS011;7633;60.024;18.770;2023-04-24T09:35:52;1.83;;;1.20;;
15067;SDS011;7633;60.024;18.770;2023-04-24T09:38:17;2.10;;;1.20;;
15067;SDS011;7633;60.024;18.770;2023-04-24T09:40:42;1.37;;;1.27;;
15067;SDS011;7633;60.024;18.770;2023-04-24T09:43:11;1.30;;;1.20;;
15067;SDS011;7633;60.024;18.770;2023-04-24T09:45:37;2.33;;;1.57;;
15067;SDS011;7633;60.024;18.770;2023-04-24T09:48:03;1.53;;;1.10;;
15067;SDS011;7633;60.024;18.770;2023-04-24T09:50:30;1.40;;;1.30;;
15067;SDS011;7633;60.024;18.770;2023-04-24T09:53:03;1.37;;;1.27;;
15067;SDS011;7633;60.024;18.770;2023-04-24T09:55:29;2.53;;;1.30;;
15067;SDS011;7633;60.024;18.770;2023-04-24T09:57:59;1.20;;;1.10;;
15067;SDS011;7633;60.024;18.770;2023-04-24T10:00:26;1.43;;;1.10;;
15067;SDS011;7633;60.024;18.770;2023-04-24T10:02:54;1.17;;;1.07;;
15067;SDS011;7633;60.024;18.770;2023-04-24T10:05:22;1.53;;;1.20;;
15067;SDS011;7633;60.024;18.770;2023-04-24T10:07:48;1.87;;;1.00;;
15067;SDS011;7633;60.024;18.770;2023-04-24T10:10:13;1.43;;;1.33;;
15067;SDS011;7633;60.024;18.770;2023-04-24T10:12:39;1.03;;;1.03;;
15067;SDS011;7633;60.024;18.770;2023-04-24T10:15:04;2.23;;;1.40;;
15067;SDS011;7633;60.024;18.770;2023-04-24T10:17:30;1.30;;;1.20;;
15067;SDS011;7633;60.024;18.770;2023-04-24T10:20:16;1.40;;;0.90;;
15067;SDS011;7633;60.024;18.770;2023-04-24T10:22:42;2.13;;;1.47;;
15067;SDS011;7633;60.024;18.770;2023-04-24T10:25:07;2.50;;;1.50;;
15067;SDS011;7633;60.024;18.770;2023-04-24T10:27:33;1.27;;;1.20;;
15067;SDS011;7633;60.024;18.770;2023-04-24T10:30:00;2.47;;;1.27;;
15067;SDS011;7633;60.024;18.770;2023-04-24T10:32:26;1.90;;;1.37;;
15067;SDS011;7633;60.024;18.770;2023-04-24T10:34:51;2.20;;;1.53;;
15067;SDS011;7633;60.024;18.770;2023-04-24T10:37:17;1.90;;;1.37;;
15067;SDS011;7633;60.024;18.770;2023-04-24T10:39:42;1.33;;;1.23;;
15067;SDS011;7633;60.024;18.770;2023-04-24T10:42:13;1.40;;;1.30;;
15067;SDS011;7633;60.024;18.770;2023-04-24T10:44:39;1.50;;;1.40;;
15067;SDS011;7633;60.024;18.770;2023-04-24T10:47:05;1.20;;;1.10;;
15067;SDS011;7633;60.024;18.770;2023-04-24T10:49:31;1.30;;;1.20;;
15067;SDS011;7633;60.024;18.770;2023-04-24T10:52:00;1.33;;;1.20;;
15067;SDS011;7633;60.024;18.770;2023-04-24T10:56:51;1.27;;;1.17;;
15067;SDS011;7633;60.024;18.770;2023-04-24T10:59:26;1.37;;;1.20;;
15067;SDS011;7633;60.024;18.770;2023-04-24T11:01:52;1.63;;;1.40;;
15067;SDS011;7633;60.024;18.770;2023-04-24T11:04:26;1.30;;;1.20;;
15067;SDS011;7633;60.024;18.770;2023-04-24T11:06:53;1.50;;;1.20;;
15067;SDS011;7633;60.024;18.770;2023-04-24T11:09:19;1.77;;;1.20;;
15067;SDS011;7633;60.024;18.770;2023-04-24T11:11:46;1.43;;;1.30;;
15067;SDS011;7633;60.024;18.770;2023-04-24T11:14:14;1.70;;;1.20;;
15067;SDS011;7633;60.024;18.770;2023-04-24T11:16:52;1.40;;;1.20;;
15067;SDS011;7633;60.024;18.770;2023-04-24T11:19:26;1.40;;;1.30;;
15067;SDS011;7633;60.024;18.770;2023-04-24T11:26:50;2.17;;;1.20;;
15067;SDS011;7633;60.024;18.770;2023-04-24T11:29:16;1.73;;;1.37;;
15067;SDS011;7633;60.024;18.770;2023-04-24T11:31:44;1.50;;;1.40;;
15067;SDS011;7633;60.024;18.770;2023-04-24T11:34:18;1.60;;;1.50;;
15067;SDS011;7633;60.024;18.770;2023-04-24T11:36:44;1.53;;;1.40;;
15067;SDS011;7633;60.024;18.770;2023-04-24T11:39:10;1.50;;;1.33;;
15067;SDS011;7633;60.024;18.770;2023-04-24T11:41:36;2.93;;;1.83;;
15067;SDS011;7633;60.024;18.770;2023-04-24T11:44:02;2.20;;;1.50;;
15067;SDS011;7633;60.024;18.770;2023-04-24T11:46:29;1.63;;;1.53;;
15067;SDS011;7633;60.024;18.770;2023-04-24T11:48:55;1.63;;;1.43;;
15067;SDS011;7633;60.024;18.770;2023-04-24T11:51:21;1.90;;;1.80;;
15067;SDS011;7633;60.024;18.770;2023-04-24T11:53:47;1.87;;;1.33;;
15067;SDS011;7633;60.024;18.770;2023-04-24T11:56:16;1.50;;;1.40;;
15067;SDS011;7633;60.024;18.770;2023-04-24T11:58:42;1.80;;;1.70;;
15067;SDS011;7633;60.024;18.770;2023-04-24T12:01:08;2.20;;;1.53;;
15067;SDS011;7633;60.024;18.770;2023-04-24T12:03:33;1.70;;;1.60;;
15067;SDS011;7633;60.024;18.770;2023-04-24T12:06:05;1.50;;;1.40;;
15067;SDS011;7633;60.024;18.770;2023-04-24T12:08:32;2.13;;;1.40;;
15067;SDS011;7633;60.024;18.770;2023-04-24T12:10:59;1.53;;;1.37;;
15067;SDS011;7633;60.024;18.770;2023-04-24T12:13:25;1.50;;;1.40;;
15067;SDS011;7633;60.024;18.770;2023-04-24T12:15:51;2.20;;;1.67;;
15067;SDS011;7633;60.024;18.770;2023-04-24T12:18:16;1.40;;;1.30;;
15067;SDS011;7633;60.024;18.770;2023-04-24T12:20:42;1.63;;;1.20;;
15067;SDS011;7633;60.024;18.770;2023-04-24T12:23:07;1.40;;;1.30;;
15067;SDS011;7633;60.024;18.770;2023-04-24T12:25:32;1.33;;;1.23;;
15067;SDS011;7633;60.024;18.770;2023-04-24T12:30:32;1.40;;;1.30;;
15067;SDS011;7633;60.024;18.770;2023-04-24T12:32:58;1.90;;;1.20;;
15067;SDS011;7633;60.024;18.770;2023-04-24T12:35:26;1.47;;;1.37;;
15067;SDS011;7633;60.024;18.770;2023-04-24T12:37:52;1.50;;;1.40;;
15067;SDS011;7633;60.024;18.770;2023-04-24T12:40:18;2.80;;;1.50;;
15067;SDS011;7633;60.024;18.770;2023-04-24T12:42:45;2.07;;;1.40;;
15067;SDS011;7633;60.024;18.770;2023-04-24T12:45:10;1.37;;;1.23;;
15067;SDS011;7633;60.024;18.770;2023-04-24T12:47:37;1.40;;;1.30;;
15067;SDS011;7633;60.024;18.770;2023-04-24T12:50:03;1.30;;;1.20;;
15067;SDS011;7633;60.024;18.770;2023-04-24T12:52:29;1.53;;;1.40;;
15067;SDS011;7633;60.024;18.770;2023-04-24T12:54:56;1.30;;;1.20;;
15067;SDS011;7633;60.024;18.770;2023-04-24T12:57:21;1.67;;;1.10;;
15067;SDS011;7633;60.024;18.770;2023-04-24T12:59:47;1.70;;;1.40;;
15067;SDS011;7633;60.024;18.770;2023-04-24T13:02:12;1.53;;;1.43;;
15067;SDS011;7633;60.024;18.770;2023-04-24T13:04:38;1.33;;;1.23;;
15067;SDS011;7633;60.024;18.770;2023-04-24T13:07:03;1.40;;;1.30;;
15067;SDS011;7633;60.024;18.770;2023-04-24T13:09:29;1.43;;;1.33;;
15067;SDS011;7633;60.024;18.770;2023-04-24T13:11:55;2.00;;;1.60;;
15067;SDS011;7633;60.024;18.770;2023-04-24T13:14:21;1.47;;;1.37;;
15067;SDS011;7633;60.024;18.770;2023-04-24T13:16:46;1.53;;;1.40;;
15067;SDS011;7633;60.024;18.770;2023-04-24T13:19:12;1.40;;;1.30;;
15067;SDS011;7633;60.024;18.770;2023-04-24T13:21:37;1.80;;;1.53;;
15067;SDS011;7633;60.024;18.770;2023-04-24T13:24:03;2.03;;;1.43;;
15067;SDS011;7633;60.024;18.770;2023-04-24T13:26:30;1.50;;;1.40;;
15067;SDS011;7633;60.024;18.770;2023-04-24T13:28:55;1.40;;;1.30;;
15067;SDS011;7633;60.024;18.770;2023-04-24T13:31:21;1.50;;;1.40;;
15067;SDS011;7633;60.024;18.770;2023-04-24T13:33:46;1.67;;;1.23;;
15067;SDS011;7633;60.024;18.770;2023-04-24T13:36:11;1.60;;;1.50;;
15067;SDS011;7633;60.024;18.770;2023-04-24T13:38:37;1.40;;;1.30;;
15067;SDS011;7633;60.024;18.770;2023-04-24T13:41:03;1.60;;;1.50;;
15067;SDS011;7633;60.024;18.770;2023-04-24T13:43:28;1.37;;;1.23;;
15067;SDS011;7633;60.024;18.770;2023-04-24T13:45:53;1.53;;;1.43;;
15067;SDS011;7633;60.024;18.770;2023-04-24T13:48:19;1.50;;;1.40;;
15067;SDS011;7633;60.024;18.770;2023-04-24T13:50:44;1.30;;;1.20;;
15067;SDS011;7633;60.024;18.770;2023-04-24T13:53:10;1.80;;;1.30;;
15067;SDS011;7633;60.024;18.770;2023-04-24T13:55:35;1.43;;;1.33;;
15067;SDS011;7633;60.024;18.770;2023-04-24T13:58:01;2.17;;;1.30;;
15067;SDS011;7633;60.024;18.770;2023-04-24T14:00:27;2.13;;;1.40;;
15067;SDS011;7633;60.024;18.770;2023-04-24T14:02:52;1.60;;;1.47;;
15067;SDS011;7633;60.024;18.770;2023-04-24T14:05:18;1.67;;;1.37;;
15067;SDS011;7633;60.024;18.770;2023-04-24T14:07:43;2.27;;;1.40;;
15067;SDS011;7633;60.024;18.770;2023-04-24T14:10:08;1.73;;;1.30;;
15067;SDS011;7633;60.024;18.770;2023-04-24T14:12:34;1.33;;;1.23;;
15067;SDS011;7633;60.024;18.770;2023-04-24T14:15:00;2.10;;;1.43;;
15067;SDS011;7633;60.024;18.770;2023-04-24T14:17:26;1.60;;;1.50;;
15067;SDS011;7633;60.024;18.770;2023-04-24T14:19:52;2.90;;;1.57;;
15067;SDS011;7633;60.024;18.770;2023-04-24T14:22:20;1.90;;;1.70;;
15067;SDS011;7633;60.024;18.770;2023-04-24T14:24:46;2.27;;;1.50;;
15067;SDS011;7633;60.024;18.770;2023-04-24T14:27:11;2.33;;;1.57;;
15067;SDS011;7633;60.024;18.770;2023-04-24T14:29:36;2.73;;;1.70;;
15067;SDS011;7633;60.024;18.770;2023-04-24T14:32:02;1.33;;;1.23;;
15067;SDS011;7633;60.024;18.770;2023-04-24T14:34:27;1.50;;;1.37;;
15067;SDS011;7633;60.024;18.770;2023-04-24T14:36:53;1.80;;;1.70;;
15067;SDS011;7633;60.024;18.770;2023-04-24T14:39:18;2.27;;;1.90;;
15067;SDS011;7633;60.024;18.770;2023-04-24T14:41:44;2.47;;;1.57;;
15067;SDS011;7633;60.024;18.770;2023-04-24T14:44:09;1.77;;;1.63;;
15067;SDS011;7633;60.024;18.770;2023-04-24T14:46:35;2.40;;;1.50;;
15067;SDS011;7633;60.024;18.770;2023-04-24T14:49:01;2.77;;;1.73;;
15067;SDS011;7633;60.024;18.770;2023-04-24T14:51:26;2.93;;;1.93;;
15067;SDS011;7633;60.024;18.770;2023-04-24T14:53:52;2.60;;;1.67;;
15067;SDS011;7633;60.024;18.770;2023-04-24T14:56:17;2.67;;;1.57;;